Time;durP1;ratioP1;P1;durP2;ratioP2;P2;SDS_P1;SDS_P2;PMS_P1;PMS_P2;Temp;Humidity;BMP_temperature;BMP_pressure;BME280_temperature;BME280_humidity;BME280_pressure;Samples;Min_cycle;Max_cycle;Signal;HPM_P1;HPM_P2
2022/11/18 00:00:49;;;;;;;;;;;8.90;99.90;;;;;;5093854;28;19908;-73
2022/11/18 00:03:14;;;;;;;;;;;8.90;99.90;;;;;;5093710;28;19947;-73
2022/11/18 00:05:40;;;;;;;;;;;8.90;99.90;;;;;;5093690;28;19909;-74
2022/11/18 00:08:05;;;;;;;;;;;8.90;99.90;;;;;;5093603;28;19912;-75
2022/11/18 00:10:31;;;;;;;;;;;8.90;99.90;;;;;;5093938;28;19908;-74
2022/11/18 00:15:41;;;;;;;;;;;8.90;99.90;;;;;;5093629;28;19992;-73
2022/11/18 00:18:06;;;;;;;;;;;8.90;99.90;;;;;;5093537;28;20349;-74
2022/11/18 00:20:32;;;;;;;;;;;8.90;99.90;;;;;;5094048;28;19908;-73
2022/11/18 00:22:58;;;;;;;;;;;8.90;99.90;;;;;;5093484;28;19908;-75
2022/11/18 00:25:24;;;;;;;;;;;8.90;99.90;;;;;;5075399;28;19912;-74
2022/11/18 00:27:50;;;;;;;;;;;8.90;99.90;;;;;;5093460;28;19920;-74
2022/11/18 00:30:15;;;;;;;;;;;8.90;99.90;;;;;;5094035;28;19908;-74
2022/11/18 00:32:41;;;;;;;;;;;8.90;99.90;;;;;;5093732;28;19914;-73
2022/11/18 00:35:07;;;;;;;;;;;8.90;99.90;;;;;;5093425;28;19908;-75
2022/11/18 00:37:32;;;;;;;;;;;8.90;99.90;;;;;;5093408;28;19908;-74
2022/11/18 00:39:58;;;;;;;;;;;8.90;99.90;;;;;;5093622;28;20388;-74
2022/11/18 00:45:07;;;;;;;;;;;8.80;99.90;;;;;;5093092;28;19953;-74
2022/11/18 00:47:33;;;;;;;;;;;8.80;99.90;;;;;;5093769;28;19916;-73
2022/11/18 00:49:58;;;;;;;;;;;8.80;99.90;;;;;;5093523;28;20445;-73
2022/11/18 00:52:24;;;;;;;;;;;8.80;99.90;;;;;;5093286;28;19923;-73
2022/11/18 00:54:49;;;;;;;;;;;8.80;99.90;;;;;;5093243;28;19957;-74
2022/11/18 00:57:15;;;;;;;;;;;8.80;99.90;;;;;;5093458;28;19991;-74
2022/11/18 00:59:40;;;;;;;;;;;8.80;99.90;;;;;;5093110;28;20304;-73
2022/11/18 01:02:06;;;;;;;;;;;8.70;99.90;;;;;;5093680;28;19916;-73
2022/11/18 01:04:31;;;;;;;;;;;8.70;99.90;;;;;;5093409;28;19915;-73
2022/11/18 01:06:57;;;;;;;;;;;8.70;99.90;;;;;;5093008;28;19931;-73
2022/11/18 01:09:22;;;;;;;;;;;8.70;99.90;;;;;;5093107;28;19912;-74
2022/11/18 01:14:32;;;;;;;;;;;8.80;99.90;;;;;;5095362;28;19957;-73
2022/11/18 01:16:57;;;;;;;;;;;8.70;99.90;;;;;;5096589;28;20316;-75
2022/11/18 01:19:23;;;;;;;;;;;8.70;99.90;;;;;;5097139;28;19930;-74
2022/11/18 01:21:49;;;;;;;;;;;8.70;99.90;;;;;;5096525;28;19915;-74
2022/11/18 01:24:14;;;;;;;;;;;8.60;99.90;;;;;;5096467;28;19943;-73
2022/11/18 01:26:40;;;;;;;;;;;8.70;99.90;;;;;;5078256;28;19908;-75
2022/11/18 01:29:06;;;;;;;;;;;8.70;99.90;;;;;;5096316;28;19912;-73
2022/11/18 01:31:31;;;;;;;;;;;8.70;99.90;;;;;;5096313;28;20377;-74
2022/11/18 01:33:56;;;;;;;;;;;8.70;99.90;;;;;;5096314;28;19908;-73
2022/11/18 01:36:26;;;;;;;;;;;8.70;99.90;;;;;;5096286;28;20011;-74
2022/11/18 01:38:52;;;;;;;;;;;8.70;99.90;;;;;;5096210;28;19908;-75
2022/11/18 01:41:18;;;;;;;;;;;8.70;99.90;;;;;;5096405;28;19916;-75
2022/11/18 01:43:47;;;;;;;;;;;8.70;99.90;;;;;;5095989;28;20019;-74
2022/11/18 01:46:12;;;;;;;;;;;8.70;99.90;;;;;;5096086;28;20370;-74
2022/11/18 01:48:38;;;;;;;;;;;8.70;99.90;;;;;;5095912;28;19920;-73
2022/11/18 01:51:07;;;;;;;;;;;8.70;99.90;;;;;;5096522;28;19916;-74
2022/11/18 01:53:54;;;;;;;;;;;8.70;99.90;;;;;;5057712;28;19924;-74
2022/11/18 01:56:22;;;;;;;;;;;8.70;99.90;;;;;;5075955;28;19908;-74
2022/11/18 01:59:00;;;;;;;;;;;8.70;99.90;;;;;;5075853;28;19908;-73
2022/11/18 02:01:25;;;;;;;;;;;8.60;99.90;;;;;;5076600;28;19955;-74
2022/11/18 02:03:51;;;;;;;;;;;8.60;99.90;;;;;;5075503;28;19908;-73
2022/11/18 02:06:17;;;;;;;;;;;8.60;99.90;;;;;;5075743;28;19932;-74
2022/11/18 02:08:43;;;;;;;;;;;8.60;99.90;;;;;;5075301;28;20371;-72
2022/11/18 02:13:55;;;;;;;;;;;8.60;99.90;;;;;;5075937;28;20343;-73
2022/11/18 02:16:25;;;;;;;;;;;8.60;99.90;;;;;;5075236;28;20467;-74
2022/11/18 02:18:56;;;;;;;;;;;8.60;99.90;;;;;;5075476;28;19915;-74
2022/11/18 02:21:34;;;;;;;;;;;8.70;99.90;;;;;;5075455;28;20008;-73
2022/11/18 02:24:22;;;;;;;;;;;8.70;99.90;;;;;;5074761;28;19912;-74
2022/11/18 02:26:54;;;;;;;;;;;8.70;99.90;;;;;;5074730;28;19938;-74
2022/11/18 02:29:27;;;;;;;;;;;8.70;99.90;;;;;;5074897;28;19912;-74
2022/11/18 02:31:58;;;;;;;;;;;8.70;99.90;;;;;;5074941;28;19908;-76
2022/11/18 02:34:27;;;;;;;;;;;8.70;99.90;;;;;;5075395;28;19909;-74
2022/11/18 02:36:58;;;;;;;;;;;8.70;99.90;;;;;;5074808;28;19909;-73
2022/11/18 02:39:30;;;;;;;;;;;8.70;99.90;;;;;;5074767;28;19932;-75
2022/11/18 02:41:56;;;;;;;;;;;8.70;99.90;;;;;;5075019;28;19999;-74
2022/11/18 02:44:24;;;;;;;;;;;8.60;99.90;;;;;;5074568;28;19908;-73
2022/11/18 02:46:52;;;;;;;;;;;8.60;99.90;;;;;;5074892;28;19908;-73
2022/11/18 02:49:20;;;;;;;;;;;8.60;99.90;;;;;;5074499;28;20378;-74
2022/11/18 02:51:47;;;;;;;;;;;8.60;99.90;;;;;;5080037;28;19927;-74
2022/11/18 02:54:14;;;;;;;;;;;8.60;99.90;;;;;;5095269;28;19908;-74
2022/11/18 02:56:41;;;;;;;;;;;8.70;99.90;;;;;;5094705;28;19998;-73
2022/11/18 02:59:06;;;;;;;;;;;8.70;99.90;;;;;;5094617;28;20358;-73
2022/11/18 03:01:33;;;;;;;;;;;8.70;99.90;;;;;;5095680;28;19908;-73
2022/11/18 03:03:59;;;;;;;;;;;8.60;99.90;;;;;;5094563;28;19908;-74
2022/11/18 03:06:30;;;;;;;;;;;8.60;99.90;;;;;;5094549;28;19912;-73
2022/11/18 03:08:59;;;;;;;;;;;8.60;99.90;;;;;;5094958;28;19912;-74
2022/11/18 03:11:30;;;;;;;;;;;8.60;99.90;;;;;;5094407;28;19916;-73
2022/11/18 03:13:55;;;;;;;;;;;8.60;99.90;;;;;;5094614;28;19990;-74
2022/11/18 03:16:24;;;;;;;;;;;8.60;99.90;;;;;;5094360;28;19955;-74
2022/11/18 03:18:56;;;;;;;;;;;8.60;99.90;;;;;;5094299;28;19923;-73
2022/11/18 03:21:36;;;;;;;;;;;8.60;99.90;;;;;;5094260;28;20392;-74
2022/11/18 03:24:06;;;;;;;;;;;8.60;99.90;;;;;;5094221;28;19999;-75
2022/11/18 03:26:33;;;;;;;;;;;8.60;99.90;;;;;;5094209;28;19915;-73
2022/11/18 03:29:12;;;;;;;;;;;8.50;99.90;;;;;;5094323;28;20369;-74
2022/11/18 03:31:42;;;;;;;;;;;8.50;99.90;;;;;;5094112;28;19915;-73
2022/11/18 03:34:08;;;;;;;;;;;8.50;99.90;;;;;;5094422;28;20364;-76
2022/11/18 03:36:36;;;;;;;;;;;8.50;99.90;;;;;;5075254;28;19951;-74
2022/11/18 03:39:04;;;;;;;;;;;8.50;99.90;;;;;;5093959;28;19915;-75
2022/11/18 03:41:32;;;;;;;;;;;8.50;99.90;;;;;;5094222;28;20289;-73
2022/11/18 03:44:05;;;;;;;;;;;8.50;99.90;;;;;;5094136;28;20376;-75
2022/11/18 03:46:34;;;;;;;;;;;8.50;99.90;;;;;;5092588;28;19912;-73
2022/11/18 03:49:00;;;;;;;;;;;8.50;99.90;;;;;;5093815;28;20056;-76
2022/11/18 03:51:29;;;;;;;;;;;8.50;99.90;;;;;;5094106;28;19959;-74
2022/11/18 03:53:57;;;;;;;;;;;8.50;99.90;;;;;;5094146;28;19919;-74
2022/11/18 03:56:25;;;;;;;;;;;8.50;99.90;;;;;;5093769;28;19999;-73
2022/11/18 03:59:10;;;;;;;;;;;8.50;99.90;;;;;;5093740;28;19908;-73
2022/11/18 04:01:39;;;;;;;;;;;8.50;99.90;;;;;;5094504;28;19912;-74
2022/11/18 04:04:05;;;;;;;;;;;8.50;99.90;;;;;;5093650;28;19912;-73
2022/11/18 04:06:37;;;;;;;;;;;8.50;99.90;;;;;;5093625;28;19908;-73
2022/11/18 04:09:07;;;;;;;;;;;8.50;99.90;;;;;;5093553;28;20002;-74
2022/11/18 04:14:19;;;;;;;;;;;8.40;99.90;;;;;;5093466;28;19914;-74
2022/11/18 04:16:48;;;;;;;;;;;8.40;99.90;;;;;;5094101;28;20368;-73
2022/11/18 04:19:15;;;;;;;;;;;8.40;99.90;;;;;;5093554;28;19909;-74
2022/11/18 04:21:41;;;;;;;;;;;8.40;99.90;;;;;;5075235;28;19908;-74
2022/11/18 04:24:06;;;;;;;;;;;8.40;99.90;;;;;;5093797;28;20414;-74
2022/11/18 04:26:32;;;;;;;;;;;8.40;99.90;;;;;;5093717;28;19908;-74
2022/11/18 04:28:57;;;;;;;;;;;8.40;99.90;;;;;;5093802;28;20010;-74
2022/11/18 04:31:23;;;;;;;;;;;8.40;99.90;;;;;;5094255;28;19957;-73
2022/11/18 04:33:48;;;;;;;;;;;8.40;99.90;;;;;;5094240;28;19909;-74
2022/11/18 04:36:14;;;;;;;;;;;8.40;99.90;;;;;;5094236;28;19912;-73
2022/11/18 04:38:39;;;;;;;;;;;8.40;99.90;;;;;;5093263;28;19908;-73
2022/11/18 04:41:05;;;;;;;;;;;8.40;99.90;;;;;;5093549;28;19915;-74
2022/11/18 04:43:30;;;;;;;;;;;8.40;99.90;;;;;;5093380;28;19908;-74
2022/11/18 04:45:56;;;;;;;;;;;8.40;99.90;;;;;;5093605;28;19908;-73
2022/11/18 04:48:21;;;;;;;;;;;8.40;99.90;;;;;;5095652;28;19951;-74
2022/11/18 04:50:47;;;;;;;;;;;8.40;99.90;;;;;;5097416;28;20259;-74
2022/11/18 04:53:12;;;;;;;;;;;8.40;99.90;;;;;;5096692;28;20445;-73
2022/11/18 04:55:38;;;;;;;;;;;8.40;99.90;;;;;;5097364;28;19915;-72
2022/11/18 04:58:03;;;;;;;;;;;8.40;99.90;;;;;;5097002;28;19958;-74
2022/11/18 05:00:29;;;;;;;;;;;8.40;99.90;;;;;;5097777;28;20368;-74
2022/11/18 05:02:54;;;;;;;;;;;8.30;99.90;;;;;;5096894;28;19919;-73
2022/11/18 05:05:20;;;;;;;;;;;8.30;99.90;;;;;;5096906;28;20396;-73
2022/11/18 05:07:45;;;;;;;;;;;8.30;99.90;;;;;;5097379;28;19912;-73
2022/11/18 05:10:11;;;;;;;;;;;8.30;99.90;;;;;;5096853;28;19909;-73
2022/11/18 05:12:48;;;;;;;;;;;8.30;99.90;;;;;;5096744;28;20003;-73
2022/11/18 05:15:18;;;;;;;;;;;8.30;99.90;;;;;;5078270;28;19908;-74
2022/11/18 05:17:43;;;;;;;;;;;8.20;99.90;;;;;;5096901;28;19914;-73
2022/11/18 05:20:09;;;;;;;;;;;8.30;99.90;;;;;;5096897;28;19991;-74
2022/11/18 05:22:35;;;;;;;;;;;8.30;99.90;;;;;;5096855;28;19919;-73
2022/11/18 05:25:01;;;;;;;;;;;8.30;99.90;;;;;;5096519;28;19908;-75
2022/11/18 05:27:26;;;;;;;;;;;8.20;99.90;;;;;;5096451;28;19920;-73
2022/11/18 05:29:52;;;;;;;;;;;8.20;99.90;;;;;;5096389;28;20439;-74
2022/11/18 05:32:17;;;;;;;;;;;8.30;99.90;;;;;;5096377;28;19908;-74
2022/11/18 05:34:43;;;;;;;;;;;8.20;99.90;;;;;;5096595;28;19908;-75
2022/11/18 05:37:08;;;;;;;;;;;8.20;99.90;;;;;;5096240;28;19908;-73
2022/11/18 05:39:34;;;;;;;;;;;8.20;99.90;;;;;;5096505;28;19912;-74
2022/11/18 05:44:44;;;;;;;;;;;8.20;99.90;;;;;;5096412;28;19915;-74
2022/11/18 05:47:09;;;;;;;;;;;8.20;99.90;;;;;;5096029;28;19908;-73
2022/11/18 05:49:35;;;;;;;;;;;8.20;99.90;;;;;;5096044;28;19908;-73
2022/11/18 05:52:01;;;;;;;;;;;8.20;99.90;;;;;;5095957;28;19924;-74
2022/11/18 05:54:26;;;;;;;;;;;8.20;99.90;;;;;;5095944;28;19908;-73
2022/11/18 05:56:52;;;;;;;;;;;8.20;99.90;;;;;;5095866;28;20269;-74
2022/11/18 05:59:17;;;;;;;;;;;8.20;99.90;;;;;;5095185;28;19912;-74
2022/11/18 06:02:03;;;;;;;;;;;8.20;99.90;;;;;;5096602;28;19908;-73
2022/11/18 06:04:35;;;;;;;;;;;8.10;99.90;;;;;;5096047;28;19922;-73
2022/11/18 06:07:06;;;;;;;;;;;8.10;99.90;;;;;;5077518;28;19908;-74
2022/11/18 06:09:35;;;;;;;;;;;8.10;99.90;;;;;;5094314;28;20375;-73
2022/11/18 06:12:03;;;;;;;;;;;8.10;99.90;;;;;;5095587;28;19984;-73
2022/11/18 06:14:32;;;;;;;;;;;8.10;99.90;;;;;;5095567;28;19908;-74
2022/11/18 06:17:00;;;;;;;;;;;8.20;99.90;;;;;;5095792;28;19908;-73
2022/11/18 06:19:25;;;;;;;;;;;8.10;99.90;;;;;;5077302;28;19966;-73
2022/11/18 06:21:51;;;;;;;;;;;8.10;99.90;;;;;;5095697;28;19908;-73
2022/11/18 06:24:17;;;;;;;;;;;8.10;99.90;;;;;;5095379;28;19908;-74
2022/11/18 06:26:43;;;;;;;;;;;8.10;99.90;;;;;;5095301;28;19912;-74
2022/11/18 06:29:10;;;;;;;;;;;8.10;99.90;;;;;;5095456;28;20255;-73
2022/11/18 06:31:35;;;;;;;;;;;8.10;99.90;;;;;;5077048;28;19915;-73
2022/11/18 06:34:01;;;;;;;;;;;8.10;99.90;;;;;;5095470;28;19908;-74
2022/11/18 06:36:26;;;;;;;;;;;8.10;99.90;;;;;;5095090;28;19916;-73
2022/11/18 06:38:52;;;;;;;;;;;8.10;99.90;;;;;;5095668;28;19908;-72
2022/11/18 06:41:17;;;;;;;;;;;8.00;99.90;;;;;;5095314;28;19993;-74
2022/11/18 06:43:43;;;;;;;;;;;8.00;99.90;;;;;;5095485;28;20388;-73
2022/11/18 06:48:55;;;;;;;;;;;8.00;99.90;;;;;;5094944;28;19923;-74
2022/11/18 06:51:20;;;;;;;;;;;8.00;99.90;;;;;;5094597;28;19911;-74
2022/11/18 06:53:46;;;;;;;;;;;7.90;99.90;;;;;;5095090;28;20010;-73
2022/11/18 06:56:13;;;;;;;;;;;7.90;99.90;;;;;;5094718;28;19908;-73
2022/11/18 06:58:39;;;;;;;;;;;7.90;99.90;;;;;;5094967;28;19912;-74
2022/11/18 07:01:09;;;;;;;;;;;7.90;99.90;;;;;;5077017;28;19976;-74
2022/11/18 07:03:34;;;;;;;;;;;7.90;99.90;;;;;;5094956;28;19919;-72
2022/11/18 07:06:00;;;;;;;;;;;7.90;99.90;;;;;;5094559;28;20324;-74
2022/11/18 07:08:25;;;;;;;;;;;7.90;99.90;;;;;;5094731;28;19912;-73
2022/11/18 07:10:51;;;;;;;;;;;7.90;99.90;;;;;;5093565;28;19908;-73
2022/11/18 07:13:17;;;;;;;;;;;7.90;99.90;;;;;;5094479;28;20370;-74
2022/11/18 07:15:42;;;;;;;;;;;7.90;99.90;;;;;;5094434;28;19915;-73
2022/11/18 07:18:08;;;;;;;;;;;7.90;99.90;;;;;;5094389;28;19908;-74
2022/11/18 07:20:34;;;;;;;;;;;7.90;99.90;;;;;;5076161;28;20453;-73
2022/11/18 07:22:59;;;;;;;;;;;7.90;99.90;;;;;;5094578;28;19908;-76
2022/11/18 07:25:24;;;;;;;;;;;7.90;99.90;;;;;;5094196;28;20323;-72
2022/11/18 07:27:50;;;;;;;;;;;7.90;99.90;;;;;;5094417;28;19912;-74
2022/11/18 07:30:16;;;;;;;;;;;7.90;99.90;;;;;;5094130;28;19974;-74
2022/11/18 07:32:41;;;;;;;;;;;7.90;99.90;;;;;;5094184;28;20369;-75
2022/11/18 07:35:07;;;;;;;;;;;7.90;99.90;;;;;;5094660;28;19914;-74
2022/11/18 07:37:32;;;;;;;;;;;7.90;99.90;;;;;;5094051;28;19974;-73
2022/11/18 07:39:58;;;;;;;;;;;7.90;99.90;;;;;;5094051;28;19915;-75
2022/11/18 07:42:24;;;;;;;;;;;7.90;99.90;;;;;;5093980;28;19916;-75
2022/11/18 07:44:49;;;;;;;;;;;7.90;99.90;;;;;;5093824;28;20009;-73
2022/11/18 07:47:15;;;;;;;;;;;7.90;99.90;;;;;;5094373;28;19966;-73
2022/11/18 07:49:40;;;;;;;;;;;7.90;99.90;;;;;;5093893;28;19954;-75
2022/11/18 07:52:06;;;;;;;;;;;7.90;99.90;;;;;;5093629;28;20325;-75
2022/11/18 07:54:32;;;;;;;;;;;7.90;99.90;;;;;;5075735;28;19909;-74
2022/11/18 07:56:57;;;;;;;;;;;8.00;99.90;;;;;;5093778;28;19912;-75
2022/11/18 07:59:23;;;;;;;;;;;8.00;99.90;;;;;;5094352;28;20374;-73
2022/11/18 08:01:48;;;;;;;;;;;8.00;99.90;;;;;;5094282;28;20439;-73
2022/11/18 08:04:14;;;;;;;;;;;8.00;99.90;;;;;;5075564;28;19948;-73
2022/11/18 08:06:40;;;;;;;;;;;8.00;99.90;;;;;;5093960;28;19951;-73
2022/11/18 08:09:06;;;;;;;;;;;8.10;99.90;;;;;;5093562;28;19916;-74
2022/11/18 08:11:32;;;;;;;;;;;8.10;99.90;;;;;;5093655;28;19908;-74
2022/11/18 08:13:58;;;;;;;;;;;8.20;99.90;;;;;;5093896;28;19940;-72
2022/11/18 08:16:24;;;;;;;;;;;8.20;99.90;;;;;;5093573;28;19908;-73
2022/11/18 08:18:49;;;;;;;;;;;8.20;99.90;;;;;;5093823;28;20370;-72
2022/11/18 08:21:16;;;;;;;;;;;8.20;99.90;;;;;;5093803;28;20011;-74
2022/11/18 08:23:42;;;;;;;;;;;8.30;99.90;;;;;;5097007;28;19959;-72
2022/11/18 08:26:09;;;;;;;;;;;8.30;99.90;;;;;;5097894;28;19908;-74
2022/11/18 08:28:35;;;;;;;;;;;8.30;99.90;;;;;;5097421;28;19970;-73
2022/11/18 08:31:07;;;;;;;;;;;8.30;99.90;;;;;;5097552;28;19912;-73
2022/11/18 08:33:32;;;;;;;;;;;8.40;99.90;;;;;;5097876;28;19997;-73
2022/11/18 08:36:04;;;;;;;;;;;8.40;99.90;;;;;;5097499;28;19948;-75
2022/11/18 08:38:29;;;;;;;;;;;8.50;99.90;;;;;;5097727;28;19908;-75
2022/11/18 08:40:55;;;;;;;;;;;8.50;99.90;;;;;;5097383;28;20006;-74
2022/11/18 08:43:20;;;;;;;;;;;8.50;99.90;;;;;;5079109;28;19908;-73
2022/11/18 08:45:46;;;;;;;;;;;8.60;99.90;;;;;;5097301;28;20007;-74
2022/11/18 08:48:11;;;;;;;;;;;8.60;99.90;;;;;;5097687;28;20370;-72
2022/11/18 08:50:37;;;;;;;;;;;8.70;99.90;;;;;;5097473;28;20419;-73
2022/11/18 08:53:02;;;;;;;;;;;8.70;99.90;;;;;;5096758;28;20007;-73
2022/11/18 08:55:28;;;;;;;;;;;8.70;99.90;;;;;;5097417;28;19908;-73
2022/11/18 08:57:53;;;;;;;;;;;8.80;99.90;;;;;;5097026;28;19943;-74
2022/11/18 09:00:19;;;;;;;;;;;8.80;99.90;;;;;;5097316;28;20003;-74
2022/11/18 09:02:45;;;;;;;;;;;8.90;99.90;;;;;;5079347;28;20422;-75
2022/11/18 09:05:10;;;;;;;;;;;9.00;99.90;;;;;;5097207;28;19912;-73
2022/11/18 09:07:36;;;;;;;;;;;9.40;99.90;;;;;;5096744;28;19974;-74
2022/11/18 09:10:01;;;;;;;;;;;9.80;99.90;;;;;;5097088;28;19956;-72
2022/11/18 09:12:27;;;;;;;;;;;10.20;99.90;;;;;;5096725;28;20277;-73
2022/11/18 09:14:52;;;;;;;;;;;10.50;99.90;;;;;;5096734;28;19915;-73
2022/11/18 09:17:18;;;;;;;;;;;10.90;99.90;;;;;;5096982;28;19915;-73
2022/11/18 09:19:43;;;;;;;;;;;11.20;99.90;;;;;;5096671;28;19908;-73
2022/11/18 09:22:09;;;;;;;;;;;11.30;99.90;;;;;;5096891;28;19915;-74
2022/11/18 09:24:35;;;;;;;;;;;11.40;99.90;;;;;;5096512;28;19912;-74
2022/11/18 09:27:02;;;;;;;;;;;11.40;99.90;;;;;;5096753;28;19914;-75
2022/11/18 09:29:27;;;;;;;;;;;11.50;99.90;;;;;;5096350;28;19912;-76
2022/11/18 09:31:53;;;;;;;;;;;11.60;99.90;;;;;;5096657;28;19908;-74
2022/11/18 09:34:18;;;;;;;;;;;11.80;99.90;;;;;;5095268;28;20431;-75
2022/11/18 09:36:44;;;;;;;;;;;11.90;99.90;;;;;;5096633;28;19915;-74
2022/11/18 09:39:11;;;;;;;;;;;11.90;99.90;;;;;;5096239;28;19930;-73
2022/11/18 09:41:42;;;;;;;;;;;11.90;99.90;;;;;;5096544;28;19912;-75
2022/11/18 09:44:16;;;;;;;;;;;12.00;99.90;;;;;;5096067;28;19908;-76
2022/11/18 09:46:42;;;;;;;;;;;12.20;99.90;;;;;;5096693;28;19916;-76
2022/11/18 09:49:14;;;;;;;;;;;12.20;99.90;;;;;;5095952;28;20289;-73
2022/11/18 09:51:41;;;;;;;;;;;12.30;99.90;;;;;;5096271;28;19916;-75
2022/11/18 09:54:11;;;;;;;;;;;12.30;99.90;;;;;;5096271;28;19953;-75
2022/11/18 09:56:37;;;;;;;;;;;12.30;99.90;;;;;;5096153;28;19945;-74
2022/11/18 09:59:03;;;;;;;;;;;12.40;99.90;;;;;;5095911;28;19909;-74
2022/11/18 10:01:29;;;;;;;;;;;12.50;99.90;;;;;;5096922;28;19908;-73
2022/11/18 10:03:54;;;;;;;;;;;12.60;99.90;;;;;;5095723;28;20263;-73
2022/11/18 10:06:22;;;;;;;;;;;12.60;99.90;;;;;;5095706;28;19908;-74
2022/11/18 10:08:51;;;;;;;;;;;12.60;99.90;;;;;;5095578;28;19912;-72
2022/11/18 10:11:17;;;;;;;;;;;12.70;99.90;;;;;;5095666;28;19973;-73
2022/11/18 10:14:02;;;;;;;;;;;12.70;99.90;;;;;;5096171;28;19997;-74
2022/11/18 10:16:46;;;;;;;;;;;12.60;99.90;;;;;;5095503;28;20413;-72
2022/11/18 10:19:14;;;;;;;;;;;12.60;99.90;;;;;;5095738;28;19934;-73
2022/11/18 10:21:42;;;;;;;;;;;12.60;99.90;;;;;;5095730;28;19908;-73
2022/11/18 10:24:12;;;;;;;;;;;12.60;99.90;;;;;;5095928;28;20355;-74
2022/11/18 10:26:39;;;;;;;;;;;12.70;99.90;;;;;;5095619;28;19908;-75
2022/11/18 10:29:11;;;;;;;;;;;12.70;99.90;;;;;;5095067;28;19916;-73
2022/11/18 10:31:51;;;;;;;;;;;12.90;99.90;;;;;;5095794;28;19915;-75
2022/11/18 10:34:17;;;;;;;;;;;12.90;99.90;;;;;;5095181;28;19908;-74
2022/11/18 10:36:42;;;;;;;;;;;12.90;99.90;;;;;;5095101;28;19931;-73
2022/11/18 10:39:12;;;;;;;;;;;12.90;99.90;;;;;;5095029;28;19908;-74
2022/11/18 10:41:43;;;;;;;;;;;12.90;99.90;;;;;;5094993;28;19916;-74
2022/11/18 10:44:27;;;;;;;;;;;13.00;99.90;;;;;;5095035;28;19909;-73
2022/11/18 10:46:53;;;;;;;;;;;12.90;99.90;;;;;;5076560;28;19933;-72
2022/11/18 10:49:18;;;;;;;;;;;13.00;99.90;;;;;;5095428;28;20006;-74
2022/11/18 10:51:45;;;;;;;;;;;13.00;99.90;;;;;;5094418;28;19923;-73
2022/11/18 10:54:18;;;;;;;;;;;13.10;99.90;;;;;;5095081;28;19949;-73
2022/11/18 10:56:59;;;;;;;;;;;13.00;99.90;;;;;;5094772;28;19951;-75
2022/11/18 10:59:33;;;;;;;;;;;13.00;99.90;;;;;;5094944;28;19927;-75
2022/11/18 11:02:00;;;;;;;;;;;12.90;99.90;;;;;;5093610;28;20122;-73
2022/11/18 11:04:27;;;;;;;;;;;12.70;99.90;;;;;;5094652;28;20324;-74
2022/11/18 11:06:52;;;;;;;;;;;12.60;99.90;;;;;;5095142;28;19965;-74
2022/11/18 11:09:21;;;;;;;;;;;12.60;99.90;;;;;;5094479;28;19916;-73
2022/11/18 11:11:57;;;;;;;;;;;12.60;99.90;;;;;;5094804;28;19909;-75
2022/11/18 11:14:35;;;;;;;;;;;12.50;99.90;;;;;;5094579;28;20266;-74
2022/11/18 11:17:00;;;;;;;;;;;12.50;99.90;;;;;;5094694;28;20002;-75
2022/11/18 11:19:30;;;;;;;;;;;12.50;99.90;;;;;;5094355;28;19950;-73
2022/11/18 11:21:56;;;;;;;;;;;12.40;99.90;;;;;;5094590;28;19912;-74
2022/11/18 11:24:23;;;;;;;;;;;12.40;99.90;;;;;;5094283;28;20002;-73
2022/11/18 11:27:08;;;;;;;;;;;12.40;99.90;;;;;;5094554;28;19913;-73
2022/11/18 11:29:44;;;;;;;;;;;12.40;99.90;;;;;;5075904;28;19959;-73
2022/11/18 11:32:27;;;;;;;;;;;12.40;99.90;;;;;;5094445;28;19908;-73
2022/11/18 11:35:01;;;;;;;;;;;12.40;99.90;;;;;;5094116;28;19915;-74
2022/11/18 11:37:45;;;;;;;;;;;12.30;99.90;;;;;;5094400;28;19961;-73
2022/11/18 11:40:18;;;;;;;;;;;12.40;99.90;;;;;;5094010;28;19912;-73
2022/11/18 11:42:50;;;;;;;;;;;12.50;99.90;;;;;;5094204;28;20007;-74
2022/11/18 11:45:15;;;;;;;;;;;12.50;99.90;;;;;;5075770;28;19955;-74
2022/11/18 11:47:59;;;;;;;;;;;12.50;99.90;;;;;;5094134;28;19966;-74
2022/11/18 11:50:31;;;;;;;;;;;12.50;99.90;;;;;;5093885;28;19912;-73
2022/11/18 11:53:06;;;;;;;;;;;12.50;99.90;;;;;;5093688;28;19920;-73
2022/11/18 11:55:50;;;;;;;;;;;12.50;99.90;;;;;;5093812;28;19919;-73
2022/11/18 11:58:26;;;;;;;;;;;12.50;99.90;;;;;;5093488;28;19961;-75
2022/11/18 12:01:07;;;;;;;;;;;12.50;99.90;;;;;;5094082;28;20365;-73
2022/11/18 12:03:42;;;;;;;;;;;12.60;99.90;;;;;;5094840;28;19954;-74
2022/11/18 12:06:08;;;;;;;;;;;12.50;99.90;;;;;;5093700;28;20279;-72
2022/11/18 12:08:35;;;;;;;;;;;12.50;99.90;;;;;;5093905;28;19954;-74
2022/11/18 12:11:03;;;;;;;;;;;12.60;99.90;;;;;;5093639;28;19951;-74
2022/11/18 12:13:29;;;;;;;;;;;12.70;99.90;;;;;;5093612;28;20383;-74
2022/11/18 12:16:01;;;;;;;;;;;12.70;99.90;;;;;;5094175;28;19912;-74
2022/11/18 12:18:45;;;;;;;;;;;12.70;99.90;;;;;;5093578;28;19994;-73
2022/11/18 12:21:29;;;;;;;;;;;12.70;99.90;;;;;;5093844;28;19938;-74
2022/11/18 12:24:21;;;;;;;;;;;12.70;99.90;;;;;;5093563;28;20282;-73
2022/11/18 12:26:48;;;;;;;;;;;12.70;99.90;;;;;;5093413;28;19959;-73
2022/11/18 12:29:19;;;;;;;;;;;12.60;99.90;;;;;;5093716;28;19912;-72
2022/11/18 12:31:46;;;;;;;;;;;12.60;99.90;;;;;;5093503;28;19919;-74
2022/11/18 12:34:17;;;;;;;;;;;12.60;99.90;;;;;;5075288;28;20483;-76
2022/11/18 12:36:43;;;;;;;;;;;12.60;99.90;;;;;;5093682;28;19915;-73
2022/11/18 12:39:32;;;;;;;;;;;12.70;99.90;;;;;;5093391;28;19908;-73
2022/11/18 12:44:42;;;;;;;;;;;12.70;99.90;;;;;;5093674;28;19973;-74
2022/11/18 12:47:08;;;;;;;;;;;12.70;99.90;;;;;;5093574;28;19908;-74
2022/11/18 12:49:34;;;;;;;;;;;12.80;99.90;;;;;;5093285;28;19912;-75
2022/11/18 12:52:00;;;;;;;;;;;12.90;99.90;;;;;;5074991;28;20385;-74
2022/11/18 12:54:46;;;;;;;;;;;13.00;99.90;;;;;;5093612;28;19955;-73
2022/11/18 12:57:19;;;;;;;;;;;13.10;99.90;;;;;;5093255;28;19960;-74
2022/11/18 12:59:44;;;;;;;;;;;13.30;99.90;;;;;;5093208;28;20010;-73
2022/11/18 13:02:10;;;;;;;;;;;13.40;99.90;;;;;;5093737;28;19961;-75
2022/11/18 13:04:35;;;;;;;;;;;13.50;99.90;;;;;;5093430;28;19969;-74
2022/11/18 13:07:01;;;;;;;;;;;13.50;99.90;;;;;;5093151;28;19909;-74
2022/11/18 13:09:29;;;;;;;;;;;13.20;99.90;;;;;;5095537;28;19912;-73
2022/11/18 13:12:00;;;;;;;;;;;13.10;99.90;;;;;;5096796;28;19908;-73
2022/11/18 13:20:20;;;;;;;;;;;13.00;99.90;;;;;;5097005;28;19973;-76
2022/11/18 13:25:36;;;;;;;;;;;13.30;99.90;;;;;;5096908;28;19915;-74
2022/11/18 13:28:02;;;;;;;;;;;13.50;99.90;;;;;;5096404;28;19916;-73
2022/11/18 13:30:29;;;;;;;;;;;13.60;99.90;;;;;;5096487;28;19908;-75
2022/11/18 13:32:56;;;;;;;;;;;13.90;99.90;;;;;;5096728;28;20318;-75
2022/11/18 13:35:22;;;;;;;;;;;13.80;99.90;;;;;;5096344;28;20061;-73
2022/11/18 13:37:48;;;;;;;;;;;13.70;99.90;;;;;;5096578;28;19908;-75
2022/11/18 13:40:17;;;;;;;;;;;13.10;99.90;;;;;;5096245;28;19915;-73
2022/11/18 13:42:43;;;;;;;;;;;12.80;99.90;;;;;;5096323;28;20396;-73
2022/11/18 13:45:11;;;;;;;;;;;12.60;99.90;;;;;;5096446;28;19958;-74
2022/11/18 13:47:49;;;;;;;;;;;12.30;99.90;;;;;;5096292;28;19976;-74
2022/11/18 13:50:33;;;;;;;;;;;12.20;99.90;;;;;;5096323;28;19923;-75
2022/11/18 13:53:02;;;;;;;;;;;12.10;99.90;;;;;;5095767;28;19920;-73
2022/11/18 13:55:30;;;;;;;;;;;12.00;99.90;;;;;;5096250;28;19999;-73
2022/11/18 13:58:02;;;;;;;;;;;11.90;99.90;;;;;;5095880;28;19912;-74
2022/11/18 14:00:29;;;;;;;;;;;11.80;99.90;;;;;;5096114;28;20342;-73
2022/11/18 14:02:56;;;;;;;;;;;11.70;99.90;;;;;;5096580;28;19915;-73
2022/11/18 14:05:22;;;;;;;;;;;11.60;99.90;;;;;;5096113;28;19961;-73
2022/11/18 14:08:01;;;;;;;;;;;11.60;99.90;;;;;;5095691;28;19912;-72
2022/11/18 14:10:37;;;;;;;;;;;11.80;99.90;;;;;;5095656;28;20436;-74
2022/11/18 14:13:11;;;;;;;;;;;11.90;99.90;;;;;;5096452;28;19908;-74
2022/11/18 14:15:37;;;;;;;;;;;11.80;99.90;;;;;;5077080;28;19931;-75
2022/11/18 14:18:02;;;;;;;;;;;11.70;99.90;;;;;;5095510;28;20378;-74
2022/11/18 14:20:29;;;;;;;;;;;11.70;99.90;;;;;;5094957;28;19915;-74
2022/11/18 14:22:58;;;;;;;;;;;11.70;99.90;;;;;;5095416;28;19915;-75
2022/11/18 14:25:29;;;;;;;;;;;11.80;99.90;;;;;;5095394;28;19908;-73
2022/11/18 14:27:56;;;;;;;;;;;11.90;99.90;;;;;;5095284;28;19912;-75
2022/11/18 14:30:25;;;;;;;;;;;11.90;99.90;;;;;;5095302;28;19908;-74
2022/11/18 14:33:10;;;;;;;;;;;11.80;99.90;;;;;;5095282;28;19930;-74
2022/11/18 14:35:36;;;;;;;;;;;11.80;99.90;;;;;;5095185;28;20312;-74
2022/11/18 14:38:08;;;;;;;;;;;11.70;99.90;;;;;;5095268;28;19977;-73
2022/11/18 14:40:34;;;;;;;;;;;11.70;99.90;;;;;;5076758;28;19908;-73
2022/11/18 14:43:01;;;;;;;;;;;11.70;99.90;;;;;;5094983;28;20049;-72
2022/11/18 14:45:26;;;;;;;;;;;11.60;99.90;;;;;;5095301;28;19915;-73
2022/11/18 14:47:51;;;;;;;;;;;11.70;99.90;;;;;;5094901;28;20309;-74
2022/11/18 14:50:17;;;;;;;;;;;11.70;99.90;;;;;;5095292;28;19908;-73
2022/11/18 14:52:42;;;;;;;;;;;11.70;99.90;;;;;;5094741;28;19945;-73
2022/11/18 14:55:09;;;;;;;;;;;11.80;99.90;;;;;;5076632;28;19953;-73
2022/11/18 14:57:35;;;;;;;;;;;11.90;99.90;;;;;;5095080;28;20102;-78
2022/11/18 15:00:00;;;;;;;;;;;12.00;99.90;;;;;;5094762;28;19948;-73
2022/11/18 15:02:26;;;;;;;;;;;12.00;99.90;;;;;;5094745;28;19961;-73